sensor_id;sensor_type;location;lat;lon;timestamp;P1;durP1;ratioP1;P2;durP2;ratioP2
64826;SDS011;51265;53.972;12.286;2023-07-28T00:01:48;9.50;;;8.50;;
64826;SDS011;51265;53.972;12.286;2023-07-28T00:04:14;12.95;;;8.90;;
64826;SDS011;51265;53.972;12.286;2023-07-28T00:06:40;10.48;;;8.57;;
64826;SDS011;51265;53.972;12.286;2023-07-28T00:09:07;9.70;;;8.30;;
64826;SDS011;51265;53.972;12.286;2023-07-28T00:11:33;16.63;;;10.05;;
64826;SDS011;51265;53.972;12.286;2023-07-28T00:13:59;11.38;;;9.20;;
64826;SDS011;51265;53.972;12.286;2023-07-28T00:16:25;10.35;;;9.15;;
64826;SDS011;51265;53.972;12.286;2023-07-28T00:18:51;12.07;;;8.80;;
64826;SDS011;51265;53.972;12.286;2023-07-28T00:21:17;11.45;;;8.70;;
64826;SDS011;51265;53.972;12.286;2023-07-28T00:23:43;13.18;;;9.43;;
64826;SDS011;51265;53.972;12.286;2023-07-28T00:26:09;11.73;;;9.45;;
64826;SDS011;51265;53.972;12.286;2023-07-28T00:28:36;12.27;;;9.25;;
64826;SDS011;51265;53.972;12.286;2023-07-28T00:31:02;9.50;;;8.57;;
64826;SDS011;51265;53.972;12.286;2023-07-28T00:33:30;10.35;;;8.27;;
64826;SDS011;51265;53.972;12.286;2023-07-28T00:35:56;10.02;;;8.25;;
64826;SDS011;51265;53.972;12.286;2023-07-28T00:38:22;8.07;;;7.28;;
64826;SDS011;51265;53.972;12.286;2023-07-28T00:40:49;9.48;;;7.78;;
64826;SDS011;51265;53.972;12.286;2023-07-28T00:43:15;10.02;;;7.82;;
64826;SDS011;51265;53.972;12.286;2023-07-28T00:45:41;9.65;;;8.30;;
64826;SDS011;51265;53.972;12.286;2023-07-28T00:48:11;9.93;;;8.25;;
64826;SDS011;51265;53.972;12.286;2023-07-28T00:50:47;10.70;;;8.57;;
64826;SDS011;51265;53.972;12.286;2023-07-28T00:53:15;12.10;;;8.65;;
64826;SDS011;51265;53.972;12.286;2023-07-28T00:55:41;9.55;;;8.13;;
64826;SDS011;51265;53.972;12.286;2023-07-28T00:58:08;9.65;;;8.18;;
64826;SDS011;51265;53.972;12.286;2023-07-28T01:00:35;9.80;;;8.57;;
64826;SDS011;51265;53.972;12.286;2023-07-28T01:03:02;9.73;;;8.73;;
64826;SDS011;51265;53.972;12.286;2023-07-28T01:05:55;12.30;;;9.50;;
64826;SDS011;51265;53.972;12.286;2023-07-28T01:08:26;10.32;;;9.23;;
64826;SDS011;51265;53.972;12.286;2023-07-28T01:10:56;11.93;;;9.77;;
64826;SDS011;51265;53.972;12.286;2023-07-28T01:13:22;13.52;;;10.45;;
64826;SDS011;51265;53.972;12.286;2023-07-28T01:15:48;13.38;;;10.98;;
64826;SDS011;51265;53.972;12.286;2023-07-28T01:18:14;11.98;;;10.52;;
64826;SDS011;51265;53.972;12.286;2023-07-28T01:20:41;12.00;;;9.90;;
64826;SDS011;51265;53.972;12.286;2023-07-28T01:23:11;13.23;;;9.68;;
64826;SDS011;51265;53.972;12.286;2023-07-28T01:28:34;14.52;;;10.63;;
64826;SDS011;51265;53.972;12.286;2023-07-28T01:31:02;13.43;;;11.18;;
64826;SDS011;51265;53.972;12.286;2023-07-28T01:33:29;14.75;;;11.40;;
64826;SDS011;51265;53.972;12.286;2023-07-28T01:35:55;14.63;;;11.35;;
64826;SDS011;51265;53.972;12.286;2023-07-28T01:38:22;14.20;;;10.82;;
64826;SDS011;51265;53.972;12.286;2023-07-28T01:40:48;12.50;;;10.40;;
64826;SDS011;51265;53.972;12.286;2023-07-28T01:43:14;14.80;;;12.00;;
64826;SDS011;51265;53.972;12.286;2023-07-28T01:45:40;13.07;;;11.15;;
64826;SDS011;51265;53.972;12.286;2023-07-28T01:48:07;14.73;;;11.45;;
64826;SDS011;51265;53.972;12.286;2023-07-28T01:50:35;14.68;;;12.15;;
64826;SDS011;51265;53.972;12.286;2023-07-28T01:53:02;17.48;;;12.70;;
64826;SDS011;51265;53.972;12.286;2023-07-28T01:55:32;18.67;;;13.40;;
64826;SDS011;51265;53.972;12.286;2023-07-28T01:57:59;21.42;;;14.18;;
64826;SDS011;51265;53.972;12.286;2023-07-28T02:00:26;22.17;;;14.07;;
64826;SDS011;51265;53.972;12.286;2023-07-28T02:02:53;19.92;;;13.65;;
64826;SDS011;51265;53.972;12.286;2023-07-28T02:05:20;21.52;;;14.57;;
64826;SDS011;51265;53.972;12.286;2023-07-28T02:07:46;24.52;;;13.60;;
64826;SDS011;51265;53.972;12.286;2023-07-28T02:10:13;23.70;;;13.38;;
64826;SDS011;51265;53.972;12.286;2023-07-28T02:12:39;17.13;;;11.93;;
64826;SDS011;51265;53.972;12.286;2023-07-28T02:15:06;16.88;;;11.10;;
64826;SDS011;51265;53.972;12.286;2023-07-28T02:17:33;12.60;;;9.70;;
64826;SDS011;51265;53.972;12.286;2023-07-28T02:19:59;19.80;;;11.90;;
64826;SDS011;51265;53.972;12.286;2023-07-28T02:22:27;14.30;;;10.65;;
64826;SDS011;51265;53.972;12.286;2023-07-28T02:24:53;17.17;;;9.77;;
64826;SDS011;51265;53.972;12.286;2023-07-28T02:27:19;16.42;;;10.35;;
64826;SDS011;51265;53.972;12.286;2023-07-28T02:29:45;21.15;;;10.68;;
64826;SDS011;51265;53.972;12.286;2023-07-28T02:32:11;19.10;;;10.90;;
64826;SDS011;51265;53.972;12.286;2023-07-28T02:34:38;15.90;;;9.77;;
64826;SDS011;51265;53.972;12.286;2023-07-28T02:37:04;15.23;;;10.20;;
64826;SDS011;51265;53.972;12.286;2023-07-28T02:39:30;14.48;;;9.40;;
64826;SDS011;51265;53.972;12.286;2023-07-28T02:41:56;18.00;;;10.38;;
64826;SDS011;51265;53.972;12.286;2023-07-28T02:44:22;21.92;;;10.10;;
64826;SDS011;51265;53.972;12.286;2023-07-28T02:46:49;21.27;;;9.65;;
64826;SDS011;51265;53.972;12.286;2023-07-28T02:49:15;17.27;;;10.38;;
64826;SDS011;51265;53.972;12.286;2023-07-28T02:51:41;17.42;;;10.40;;
64826;SDS011;51265;53.972;12.286;2023-07-28T02:54:08;19.25;;;11.00;;
64826;SDS011;51265;53.972;12.286;2023-07-28T02:56:34;25.70;;;11.77;;
64826;SDS011;51265;53.972;12.286;2023-07-28T02:59:04;20.10;;;11.30;;
64826;SDS011;51265;53.972;12.286;2023-07-28T03:01:31;18.15;;;10.60;;
64826;SDS011;51265;53.972;12.286;2023-07-28T03:04:02;18.40;;;10.10;;
64826;SDS011;51265;53.972;12.286;2023-07-28T03:06:36;19.27;;;10.85;;
64826;SDS011;51265;53.972;12.286;2023-07-28T03:09:02;18.85;;;10.18;;
64826;SDS011;51265;53.972;12.286;2023-07-28T03:11:48;19.35;;;10.52;;
64826;SDS011;51265;53.972;12.286;2023-07-28T03:14:14;18.60;;;11.00;;
64826;SDS011;51265;53.972;12.286;2023-07-28T03:16:41;19.55;;;10.88;;
64826;SDS011;51265;53.972;12.286;2023-07-28T03:19:08;18.35;;;10.30;;
64826;SDS011;51265;53.972;12.286;2023-07-28T03:21:34;25.52;;;11.40;;
64826;SDS011;51265;53.972;12.286;2023-07-28T03:24:00;21.98;;;10.93;;
64826;SDS011;51265;53.972;12.286;2023-07-28T03:26:26;21.90;;;11.05;;
64826;SDS011;51265;53.972;12.286;2023-07-28T03:28:53;19.50;;;10.63;;
64826;SDS011;51265;53.972;12.286;2023-07-28T03:31:19;20.52;;;10.70;;
64826;SDS011;51265;53.972;12.286;2023-07-28T03:33:45;21.98;;;10.85;;
64826;SDS011;51265;53.972;12.286;2023-07-28T03:36:11;22.92;;;11.18;;
64826;SDS011;51265;53.972;12.286;2023-07-28T03:38:38;17.80;;;10.70;;
64826;SDS011;51265;53.972;12.286;2023-07-28T03:41:06;16.73;;;9.40;;
64826;SDS011;51265;53.972;12.286;2023-07-28T03:43:33;15.82;;;10.07;;
64826;SDS011;51265;53.972;12.286;2023-07-28T03:45:59;22.65;;;11.20;;
64826;SDS011;51265;53.972;12.286;2023-07-28T03:48:25;18.17;;;9.65;;
64826;SDS011;51265;53.972;12.286;2023-07-28T03:50:51;17.27;;;10.57;;
64826;SDS011;51265;53.972;12.286;2023-07-28T03:53:18;20.48;;;10.80;;
64826;SDS011;51265;53.972;12.286;2023-07-28T03:55:44;19.95;;;9.98;;
64826;SDS011;51265;53.972;12.286;2023-07-28T03:58:10;16.25;;;10.30;;
64826;SDS011;51265;53.972;12.286;2023-07-28T04:00:36;14.20;;;9.40;;
64826;SDS011;51265;53.972;12.286;2023-07-28T04:03:02;13.50;;;8.48;;
64826;SDS011;51265;53.972;12.286;2023-07-28T04:05:29;18.77;;;9.93;;
64826;SDS011;51265;53.972;12.286;2023-07-28T04:07:55;14.95;;;9.35;;
64826;SDS011;51265;53.972;12.286;2023-07-28T04:10:21;15.88;;;9.75;;
64826;SDS011;51265;53.972;12.286;2023-07-28T04:12:47;15.05;;;9.63;;
64826;SDS011;51265;53.972;12.286;2023-07-28T04:15:14;16.88;;;10.32;;
64826;SDS011;51265;53.972;12.286;2023-07-28T04:17:40;14.32;;;9.63;;
64826;SDS011;51265;53.972;12.286;2023-07-28T04:20:07;16.77;;;10.10;;
64826;SDS011;51265;53.972;12.286;2023-07-28T04:22:34;14.07;;;9.05;;
64826;SDS011;51265;53.972;12.286;2023-07-28T04:25:00;15.57;;;9.23;;
64826;SDS011;51265;53.972;12.286;2023-07-28T04:27:28;12.23;;;9.07;;
64826;SDS011;51265;53.972;12.286;2023-07-28T04:29:59;13.40;;;9.15;;
64826;SDS011;51265;53.972;12.286;2023-07-28T04:32:25;13.18;;;9.25;;
64826;SDS011;51265;53.972;12.286;2023-07-28T04:34:53;12.75;;;8.45;;
64826;SDS011;51265;53.972;12.286;2023-07-28T04:37:47;12.13;;;8.23;;
64826;SDS011;51265;53.972;12.286;2023-07-28T04:40:24;11.90;;;8.32;;
64826;SDS011;51265;53.972;12.286;2023-07-28T04:42:50;10.35;;;7.60;;
64826;SDS011;51265;53.972;12.286;2023-07-28T04:45:19;10.82;;;7.72;;
64826;SDS011;51265;53.972;12.286;2023-07-28T04:47:45;10.10;;;7.28;;
64826;SDS011;51265;53.972;12.286;2023-07-28T04:50:12;14.07;;;8.85;;
64826;SDS011;51265;53.972;12.286;2023-07-28T04:53:01;10.95;;;7.13;;
64826;SDS011;51265;53.972;12.286;2023-07-28T04:55:41;12.07;;;7.93;;
64826;SDS011;51265;53.972;12.286;2023-07-28T04:58:17;13.20;;;8.55;;
64826;SDS011;51265;53.972;12.286;2023-07-28T05:00:47;17.17;;;12.32;;
64826;SDS011;51265;53.972;12.286;2023-07-28T05:03:14;14.82;;;10.52;;
64826;SDS011;51265;53.972;12.286;2023-07-28T05:05:48;13.95;;;10.40;;
64826;SDS011;51265;53.972;12.286;2023-07-28T05:08:14;13.35;;;8.40;;
64826;SDS011;51265;53.972;12.286;2023-07-28T05:10:44;13.00;;;8.48;;
64826;SDS011;51265;53.972;12.286;2023-07-28T05:13:11;10.88;;;7.65;;
64826;SDS011;51265;53.972;12.286;2023-07-28T05:15:41;9.45;;;7.10;;
64826;SDS011;51265;53.972;12.286;2023-07-28T05:18:14;10.75;;;6.75;;
64826;SDS011;51265;53.972;12.286;2023-07-28T05:20:59;9.90;;;6.00;;
64826;SDS011;51265;53.972;12.286;2023-07-28T05:23:25;8.80;;;6.38;;
64826;SDS011;51265;53.972;12.286;2023-07-28T05:25:51;7.32;;;5.57;;
64826;SDS011;51265;53.972;12.286;2023-07-28T05:28:18;11.75;;;6.93;;
64826;SDS011;51265;53.972;12.286;2023-07-28T05:30:45;8.57;;;6.28;;
64826;SDS011;51265;53.972;12.286;2023-07-28T05:33:12;7.85;;;5.57;;
64826;SDS011;51265;53.972;12.286;2023-07-28T05:35:58;8.88;;;6.00;;
64826;SDS011;51265;53.972;12.286;2023-07-28T05:38:25;7.80;;;5.60;;
64826;SDS011;51265;53.972;12.286;2023-07-28T05:40:57;11.48;;;8.48;;
64826;SDS011;51265;53.972;12.286;2023-07-28T05:43:24;19.02;;;16.02;;
64826;SDS011;51265;53.972;12.286;2023-07-28T05:45:53;10.23;;;7.03;;
64826;SDS011;51265;53.972;12.286;2023-07-28T05:48:19;6.78;;;5.65;;
64826;SDS011;51265;53.972;12.286;2023-07-28T05:50:46;6.22;;;5.50;;
64826;SDS011;51265;53.972;12.286;2023-07-28T05:53:12;6.15;;;5.25;;
64826;SDS011;51265;53.972;12.286;2023-07-28T05:55:40;6.40;;;5.07;;
64826;SDS011;51265;53.972;12.286;2023-07-28T05:58:06;5.70;;;5.10;;
64826;SDS011;51265;53.972;12.286;2023-07-28T06:00:35;6.65;;;4.88;;
64826;SDS011;51265;53.972;12.286;2023-07-28T06:03:06;7.47;;;5.35;;
64826;SDS011;51265;53.972;12.286;2023-07-28T06:06:08;6.73;;;4.67;;
64826;SDS011;51265;53.972;12.286;2023-07-28T06:08:34;5.72;;;4.75;;
64826;SDS011;51265;53.972;12.286;2023-07-28T06:11:05;5.63;;;4.35;;
64826;SDS011;51265;53.972;12.286;2023-07-28T06:13:32;5.50;;;4.93;;
64826;SDS011;51265;53.972;12.286;2023-07-28T06:15:58;6.53;;;4.63;;
64826;SDS011;51265;53.972;12.286;2023-07-28T06:18:25;6.63;;;5.13;;
64826;SDS011;51265;53.972;12.286;2023-07-28T06:21:02;6.15;;;5.18;;
64826;SDS011;51265;53.972;12.286;2023-07-28T06:23:28;5.05;;;4.43;;
64826;SDS011;51265;53.972;12.286;2023-07-28T06:25:56;5.10;;;4.60;;
64826;SDS011;51265;53.972;12.286;2023-07-28T06:28:23;4.70;;;4.22;;
64826;SDS011;51265;53.972;12.286;2023-07-28T06:30:55;6.40;;;4.90;;
64826;SDS011;51265;53.972;12.286;2023-07-28T06:33:24;5.43;;;4.10;;
64826;SDS011;51265;53.972;12.286;2023-07-28T06:35:51;4.90;;;4.40;;
64826;SDS011;51265;53.972;12.286;2023-07-28T06:38:18;5.97;;;5.15;;
64826;SDS011;51265;53.972;12.286;2023-07-28T06:40:44;5.32;;;4.63;;
64826;SDS011;51265;53.972;12.286;2023-07-28T06:43:10;6.45;;;5.18;;
64826;SDS011;51265;53.972;12.286;2023-07-28T06:45:38;5.85;;;4.63;;
64826;SDS011;51265;53.972;12.286;2023-07-28T06:48:04;15.95;;;14.30;;
64826;SDS011;51265;53.972;12.286;2023-07-28T06:50:30;5.72;;;5.13;;
64826;SDS011;51265;53.972;12.286;2023-07-28T06:52:58;5.55;;;4.05;;
64826;SDS011;51265;53.972;12.286;2023-07-28T06:55:25;5.43;;;4.30;;
64826;SDS011;51265;53.972;12.286;2023-07-28T06:57:51;6.05;;;4.53;;
64826;SDS011;51265;53.972;12.286;2023-07-28T07:00:18;4.82;;;3.83;;
64826;SDS011;51265;53.972;12.286;2023-07-28T07:02:44;4.68;;;3.45;;
64826;SDS011;51265;53.972;12.286;2023-07-28T07:05:11;4.10;;;3.70;;
64826;SDS011;51265;53.972;12.286;2023-07-28T07:07:38;6.68;;;3.45;;
64826;SDS011;51265;53.972;12.286;2023-07-28T07:10:05;6.80;;;3.40;;
64826;SDS011;51265;53.972;12.286;2023-07-28T07:12:32;6.25;;;3.53;;
64826;SDS011;51265;53.972;12.286;2023-07-28T07:14:58;3.78;;;3.17;;
64826;SDS011;51265;53.972;12.286;2023-07-28T07:17:24;4.78;;;3.47;;
64826;SDS011;51265;53.972;12.286;2023-07-28T07:19:51;3.65;;;2.83;;
64826;SDS011;51265;53.972;12.286;2023-07-28T07:22:17;2.55;;;2.35;;
64826;SDS011;51265;53.972;12.286;2023-07-28T07:24:43;2.38;;;2.15;;
64826;SDS011;51265;53.972;12.286;2023-07-28T07:27:09;3.10;;;2.40;;
64826;SDS011;51265;53.972;12.286;2023-07-28T07:29:37;2.63;;;1.90;;
64826;SDS011;51265;53.972;12.286;2023-07-28T07:32:05;2.13;;;1.80;;
64826;SDS011;51265;53.972;12.286;2023-07-28T07:34:32;2.20;;;2.00;;
64826;SDS011;51265;53.972;12.286;2023-07-28T07:36:59;2.58;;;1.50;;
64826;SDS011;51265;53.972;12.286;2023-07-28T07:39:27;1.92;;;1.63;;
64826;SDS011;51265;53.972;12.286;2023-07-28T07:41:53;2.10;;;1.90;;
64826;SDS011;51265;53.972;12.286;2023-07-28T07:44:19;4.88;;;2.40;;
64826;SDS011;51265;53.972;12.286;2023-07-28T07:46:45;2.53;;;2.20;;
64826;SDS011;51265;53.972;12.286;2023-07-28T07:49:11;2.78;;;2.22;;
64826;SDS011;51265;53.972;12.286;2023-07-28T07:51:40;4.43;;;2.10;;
64826;SDS011;51265;53.972;12.286;2023-07-28T07:54:06;1.98;;;1.42;;
64826;SDS011;51265;53.972;12.286;2023-07-28T07:56:32;2.22;;;1.73;;
64826;SDS011;51265;53.972;12.286;2023-07-28T07:58:58;1.83;;;1.40;;
64826;SDS011;51265;53.972;12.286;2023-07-28T08:01:25;1.88;;;1.00;;
64826;SDS011;51265;53.972;12.286;2023-07-28T08:03:51;1.05;;;0.90;;
64826;SDS011;51265;53.972;12.286;2023-07-28T08:06:17;1.30;;;0.90;;
64826;SDS011;51265;53.972;12.286;2023-07-28T08:08:43;1.25;;;1.05;;
64826;SDS011;51265;53.972;12.286;2023-07-28T08:11:10;1.65;;;1.00;;
64826;SDS011;51265;53.972;12.286;2023-07-28T08:13:37;1.63;;;1.00;;
64826;SDS011;51265;53.972;12.286;2023-07-28T08:16:03;2.75;;;0.90;;
64826;SDS011;51265;53.972;12.286;2023-07-28T08:18:29;1.30;;;0.68;;
64826;SDS011;51265;53.972;12.286;2023-07-28T08:20:55;1.27;;;0.80;;
64826;SDS011;51265;53.972;12.286;2023-07-28T08:23:22;1.05;;;0.73;;
64826;SDS011;51265;53.972;12.286;2023-07-28T08:25:48;2.65;;;2.08;;
64826;SDS011;51265;53.972;12.286;2023-07-28T08:28:14;1.33;;;1.00;;
64826;SDS011;51265;53.972;12.286;2023-07-28T08:30:40;2.50;;;1.00;;
64826;SDS011;51265;53.972;12.286;2023-07-28T08:33:06;2.17;;;1.00;;
64826;SDS011;51265;53.972;12.286;2023-07-28T08:35:32;1.20;;;0.93;;
64826;SDS011;51265;53.972;12.286;2023-07-28T08:37:59;1.20;;;0.98;;
64826;SDS011;51265;53.972;12.286;2023-07-28T08:40:26;1.70;;;0.90;;
64826;SDS011;51265;53.972;12.286;2023-07-28T08:42:53;3.08;;;0.90;;
64826;SDS011;51265;53.972;12.286;2023-07-28T08:45:19;1.48;;;1.02;;
64826;SDS011;51265;53.972;12.286;2023-07-28T08:47:45;2.65;;;0.88;;
64826;SDS011;51265;53.972;12.286;2023-07-28T08:50:11;1.65;;;1.30;;
64826;SDS011;51265;53.972;12.286;2023-07-28T08:52:38;1.80;;;1.25;;
64826;SDS011;51265;53.972;12.286;2023-07-28T08:55:04;1.52;;;1.25;;
64826;SDS011;51265;53.972;12.286;2023-07-28T08:57:30;3.47;;;1.52;;
64826;SDS011;51265;53.972;12.286;2023-07-28T08:59:57;2.75;;;1.48;;
64826;SDS011;51265;53.972;12.286;2023-07-28T09:02:23;2.03;;;1.60;;
64826;SDS011;51265;53.972;12.286;2023-07-28T09:04:49;2.25;;;1.42;;
64826;SDS011;51265;53.972;12.286;2023-07-28T09:07:15;2.25;;;1.58;;
64826;SDS011;51265;53.972;12.286;2023-07-28T09:09:42;1.92;;;1.40;;
64826;SDS011;51265;53.972;12.286;2023-07-28T09:12:08;3.17;;;1.20;;
64826;SDS011;51265;53.972;12.286;2023-07-28T09:14:35;1.40;;;1.30;;
64826;SDS011;51265;53.972;12.286;2023-07-28T09:17:09;2.67;;;2.08;;
64826;SDS011;51265;53.972;12.286;2023-07-28T09:19:53;3.22;;;2.45;;
64826;SDS011;51265;53.972;12.286;2023-07-28T09:22:20;3.20;;;2.47;;
64826;SDS011;51265;53.972;12.286;2023-07-28T09:24:47;4.63;;;3.33;;
64826;SDS011;51265;53.972;12.286;2023-07-28T09:27:24;4.07;;;3.17;;
64826;SDS011;51265;53.972;12.286;2023-07-28T09:29:52;3.95;;;3.55;;
64826;SDS011;51265;53.972;12.286;2023-07-28T09:32:28;4.75;;;3.70;;
64826;SDS011;51265;53.972;12.286;2023-07-28T09:35:09;5.22;;;4.38;;
64826;SDS011;51265;53.972;12.286;2023-07-28T09:37:40;44.30;;;6.20;;
64826;SDS011;51265;53.972;12.286;2023-07-28T09:40:07;4.68;;;4.18;;
64826;SDS011;51265;53.972;12.286;2023-07-28T09:42:38;5.00;;;4.47;;
64826;SDS011;51265;53.972;12.286;2023-07-28T09:45:05;8.80;;;4.05;;
64826;SDS011;51265;53.972;12.286;2023-07-28T09:47:33;4.88;;;3.58;;
64826;SDS011;51265;53.972;12.286;2023-07-28T09:50:02;3.88;;;3.42;;
64826;SDS011;51265;53.972;12.286;2023-07-28T09:52:31;4.20;;;3.80;;
64826;SDS011;51265;53.972;12.286;2023-07-28T09:55:03;5.30;;;2.97;;
64826;SDS011;51265;53.972;12.286;2023-07-28T09:57:33;3.10;;;2.80;;
64826;SDS011;51265;53.972;12.286;2023-07-28T10:00:04;3.90;;;2.80;;
64826;SDS011;51265;53.972;12.286;2023-07-28T10:02:38;3.40;;;2.20;;
64826;SDS011;51265;53.972;12.286;2023-07-28T10:05:06;3.10;;;2.10;;
64826;SDS011;51265;53.972;12.286;2023-07-28T10:07:37;3.00;;;2.33;;
64826;SDS011;51265;53.972;12.286;2023-07-28T10:10:05;5.07;;;2.75;;
64826;SDS011;51265;53.972;12.286;2023-07-28T10:12:40;2.53;;;1.80;;
64826;SDS011;51265;53.972;12.286;2023-07-28T10:15:21;2.85;;;1.58;;
64826;SDS011;51265;53.972;12.286;2023-07-28T10:17:54;4.63;;;1.88;;
64826;SDS011;51265;53.972;12.286;2023-07-28T10:23:07;2.33;;;1.77;;
64826;SDS011;51265;53.972;12.286;2023-07-28T10:25:38;4.82;;;2.03;;
64826;SDS011;51265;53.972;12.286;2023-07-28T10:28:06;4.55;;;1.75;;
64826;SDS011;51265;53.972;12.286;2023-07-28T10:30:51;2.70;;;1.80;;
64826;SDS011;51265;53.972;12.286;2023-07-28T10:33:26;1.70;;;1.30;;
64826;SDS011;51265;53.972;12.286;2023-07-28T10:39:00;1.40;;;1.10;;
64826;SDS011;51265;53.972;12.286;2023-07-28T10:41:28;2.72;;;1.30;;
64826;SDS011;51265;53.972;12.286;2023-07-28T10:43:56;1.30;;;0.98;;
64826;SDS011;51265;53.972;12.286;2023-07-28T10:46:22;1.20;;;0.73;;
64826;SDS011;51265;53.972;12.286;2023-07-28T10:48:49;1.92;;;1.00;;
64826;SDS011;51265;53.972;12.286;2023-07-28T10:51:22;0.93;;;0.70;;
64826;SDS011;51265;53.972;12.286;2023-07-28T10:53:51;1.60;;;1.20;;
64826;SDS011;51265;53.972;12.286;2023-07-28T10:56:20;2.45;;;0.82;;
64826;SDS011;51265;53.972;12.286;2023-07-28T10:58:55;2.78;;;0.93;;
64826;SDS011;51265;53.972;12.286;2023-07-28T11:01:24;1.98;;;1.10;;
64826;SDS011;51265;53.972;12.286;2023-07-28T11:03:56;5.72;;;1.05;;
64826;SDS011;51265;53.972;12.286;2023-07-28T11:06:22;1.40;;;0.73;;
64826;SDS011;51265;53.972;12.286;2023-07-28T11:08:49;0.80;;;0.60;;
64826;SDS011;51265;53.972;12.286;2023-07-28T11:11:15;1.27;;;0.80;;
64826;SDS011;51265;53.972;12.286;2023-07-28T11:13:42;3.53;;;2.70;;
64826;SDS011;51265;53.972;12.286;2023-07-28T11:16:08;3.10;;;2.72;;
64826;SDS011;51265;53.972;12.286;2023-07-28T11:18:36;1.98;;;0.88;;
64826;SDS011;51265;53.972;12.286;2023-07-28T11:21:02;2.05;;;1.20;;
64826;SDS011;51265;53.972;12.286;2023-07-28T11:23:47;3.05;;;1.45;;
64826;SDS011;51265;53.972;12.286;2023-07-28T11:26:14;2.10;;;1.38;;
64826;SDS011;51265;53.972;12.286;2023-07-28T11:28:40;3.35;;;1.40;;
64826;SDS011;51265;53.972;12.286;2023-07-28T11:31:06;2.65;;;1.20;;
64826;SDS011;51265;53.972;12.286;2023-07-28T11:33:35;5.28;;;1.65;;
64826;SDS011;51265;53.972;12.286;2023-07-28T11:36:02;2.72;;;1.85;;
64826;SDS011;51265;53.972;12.286;2023-07-28T11:38:28;2.40;;;1.80;;
64826;SDS011;51265;53.972;12.286;2023-07-28T11:40:55;2.00;;;1.48;;
64826;SDS011;51265;53.972;12.286;2023-07-28T11:43:22;2.55;;;1.48;;
64826;SDS011;51265;53.972;12.286;2023-07-28T11:45:49;2.90;;;1.52;;
64826;SDS011;51265;53.972;12.286;2023-07-28T11:48:16;2.22;;;1.50;;
64826;SDS011;51265;53.972;12.286;2023-07-28T11:50:43;2.50;;;1.13;;
64826;SDS011;51265;53.972;12.286;2023-07-28T11:53:11;1.50;;;1.20;;
64826;SDS011;51265;53.972;12.286;2023-07-28T11:55:38;1.50;;;1.13;;
64826;SDS011;51265;53.972;12.286;2023-07-28T11:58:05;4.38;;;1.13;;
64826;SDS011;51265;53.972;12.286;2023-07-28T12:00:32;4.30;;;1.17;;
64826;SDS011;51265;53.972;12.286;2023-07-28T12:03:13;3.38;;;1.05;;
64826;SDS011;51265;53.972;12.286;2023-07-28T12:05:39;2.45;;;1.27;;
64826;SDS011;51265;53.972;12.286;2023-07-28T12:08:07;2.78;;;1.48;;
64826;SDS011;51265;53.972;12.286;2023-07-28T12:10:33;2.10;;;1.20;;
64826;SDS011;51265;53.972;12.286;2023-07-28T12:13:04;1.17;;;0.80;;
64826;SDS011;51265;53.972;12.286;2023-07-28T12:15:42;2.77;;;1.00;;
64826;SDS011;51265;53.972;12.286;2023-07-28T12:18:15;1.65;;;0.88;;
64826;SDS011;51265;53.972;12.286;2023-07-28T12:20:43;1.63;;;0.82;;
64826;SDS011;51265;53.972;12.286;2023-07-28T12:23:16;1.02;;;0.80;;
64826;SDS011;51265;53.972;12.286;2023-07-28T12:25:44;1.27;;;0.63;;
64826;SDS011;51265;53.972;12.286;2023-07-28T12:28:11;4.70;;;0.90;;
64826;SDS011;51265;53.972;12.286;2023-07-28T12:30:37;2.08;;;0.88;;
64826;SDS011;51265;53.972;12.286;2023-07-28T12:33:04;1.67;;;0.80;;
64826;SDS011;51265;53.972;12.286;2023-07-28T12:35:31;2.33;;;0.73;;
64826;SDS011;51265;53.972;12.286;2023-07-28T12:38:00;0.82;;;0.57;;
64826;SDS011;51265;53.972;12.286;2023-07-28T12:40:31;1.10;;;0.60;;
64826;SDS011;51265;53.972;12.286;2023-07-28T12:43:00;1.27;;;0.70;;
64826;SDS011;51265;53.972;12.286;2023-07-28T12:45:28;0.80;;;0.60;;
64826;SDS011;51265;53.972;12.286;2023-07-28T12:47:54;0.85;;;0.55;;
64826;SDS011;51265;53.972;12.286;2023-07-28T12:50:22;0.98;;;0.60;;
64826;SDS011;51265;53.972;12.286;2023-07-28T12:52:49;2.63;;;0.60;;
64826;SDS011;51265;53.972;12.286;2023-07-28T12:55:16;1.05;;;0.70;;
64826;SDS011;51265;53.972;12.286;2023-07-28T12:57:43;1.67;;;0.60;;
64826;SDS011;51265;53.972;12.286;2023-07-28T13:00:10;1.73;;;0.60;;
64826;SDS011;51265;53.972;12.286;2023-07-28T13:02:42;1.30;;;0.63;;
64826;SDS011;51265;53.972;12.286;2023-07-28T13:05:10;1.42;;;0.60;;
64826;SDS011;51265;53.972;12.286;2023-07-28T13:07:38;0.85;;;0.60;;
64826;SDS011;51265;53.972;12.286;2023-07-28T13:10:08;0.80;;;0.40;;
64826;SDS011;51265;53.972;12.286;2023-07-28T13:12:36;2.20;;;0.60;;
64826;SDS011;51265;53.972;12.286;2023-07-28T13:15:03;1.05;;;0.60;;
64826;SDS011;51265;53.972;12.286;2023-07-28T13:17:30;1.45;;;0.60;;
64826;SDS011;51265;53.972;12.286;2023-07-28T13:19:56;0.98;;;0.45;;
64826;SDS011;51265;53.972;12.286;2023-07-28T13:22:26;1.50;;;0.70;;
64826;SDS011;51265;53.972;12.286;2023-07-28T13:24:53;1.00;;;0.40;;
64826;SDS011;51265;53.972;12.286;2023-07-28T13:27:20;2.35;;;0.52;;
64826;SDS011;51265;53.972;12.286;2023-07-28T13:29:46;0.82;;;0.60;;
64826;SDS011;51265;53.972;12.286;2023-07-28T13:32:16;1.95;;;0.63;;
64826;SDS011;51265;53.972;12.286;2023-07-28T13:34:44;0.65;;;0.40;;
64826;SDS011;51265;53.972;12.286;2023-07-28T13:37:10;2.50;;;0.45;;
64826;SDS011;51265;53.972;12.286;2023-07-28T13:39:36;0.63;;;0.60;;
64826;SDS011;51265;53.972;12.286;2023-07-28T13:42:03;2.55;;;0.50;;
64826;SDS011;51265;53.972;12.286;2023-07-28T13:44:29;1.58;;;0.40;;
64826;SDS011;51265;53.972;12.286;2023-07-28T13:46:55;1.25;;;0.70;;
64826;SDS011;51265;53.972;12.286;2023-07-28T13:49:22;1.30;;;0.63;;
64826;SDS011;51265;53.972;12.286;2023-07-28T13:51:48;0.93;;;0.60;;
64826;SDS011;51265;53.972;12.286;2023-07-28T13:54:14;0.80;;;0.50;;
64826;SDS011;51265;53.972;12.286;2023-07-28T13:56:40;0.60;;;0.40;;
64826;SDS011;51265;53.972;12.286;2023-07-28T13:59:06;3.35;;;0.60;;
64826;SDS011;51265;53.972;12.286;2023-07-28T14:01:32;0.57;;;0.43;;
64826;SDS011;51265;53.972;12.286;2023-07-28T14:03:58;0.95;;;0.57;;
64826;SDS011;51265;53.972;12.286;2023-07-28T14:06:24;3.55;;;0.60;;
64826;SDS011;51265;53.972;12.286;2023-07-28T14:08:50;0.75;;;0.50;;
64826;SDS011;51265;53.972;12.286;2023-07-28T14:11:17;0.80;;;0.52;;
64826;SDS011;51265;53.972;12.286;2023-07-28T14:13:43;1.08;;;0.45;;
64826;SDS011;51265;53.972;12.286;2023-07-28T14:16:09;2.15;;;0.50;;
64826;SDS011;51265;53.972;12.286;2023-07-28T14:18:38;1.30;;;0.75;;
64826;SDS011;51265;53.972;12.286;2023-07-28T14:21:04;2.00;;;0.77;;
64826;SDS011;51265;53.972;12.286;2023-07-28T14:23:31;1.35;;;1.05;;
64826;SDS011;51265;53.972;12.286;2023-07-28T14:25:57;2.20;;;0.80;;
64826;SDS011;51265;53.972;12.286;2023-07-28T14:28:23;1.25;;;0.60;;
64826;SDS011;51265;53.972;12.286;2023-07-28T14:30:50;1.08;;;0.80;;
64826;SDS011;51265;53.972;12.286;2023-07-28T14:33:17;1.77;;;0.82;;
64826;SDS011;51265;53.972;12.286;2023-07-28T14:35:44;1.48;;;0.68;;
64826;SDS011;51265;53.972;12.286;2023-07-28T14:38:11;1.35;;;0.70;;
64826;SDS011;51265;53.972;12.286;2023-07-28T14:40:38;2.40;;;0.77;;
64826;SDS011;51265;53.972;12.286;2023-07-28T14:43:06;2.38;;;0.60;;